< Cyclone 202208 2022 Season
Cyclone 202210 (Tiffany)
General InformationTrack Information on Google MapsList of All Images || ResourceGoogle EarthGE AnimationAtom FeedGeoJSON
Detalied Best Track (Time Zone = UTC)
Year Month Day Hour Lat. Long. Pressure (hPa) Wind (kt) Class Image Chart
2022 1 8 00 -11.8 147.5 1005 25 2 Image --
2022 1 8 06 -12.7 147.8 1003 25 2 Image --
2022 1 8 12 -13.0 147.9 1004 30 2 Image --
2022 1 8 18 -13.4 147.9 1002 30 2 Image --
2022 1 9 00 -13.8 147.3 1000 30 2 Image --
2022 1 9 06 -13.8 146.7 995 40 3 Image --
2022 1 9 12 -13.8 145.9 990 50 4 Image --
2022 1 9 18 -13.9 144.9 989 50 4 Image --
2022 1 10 00 -14.1 144.2 992 50 4 Image --
2022 1 10 06 -14.4 143.7 994 35 3 Image --
2022 1 10 12 -14.6 142.8 998 30 2 Image --
2022 1 10 18 -14.5 142.0 998 30 2 Image --
2022 1 11 00 -14.4 141.1 998 30 2 Image --
2022 1 11 06 -14.9 140.0 998 35 3 Image --
2022 1 11 12 -14.7 138.2 995 45 3 Image --
2022 1 11 18 -14.6 137.1 992 45 3 Image --
2022 1 12 00 -14.5 135.6 992 40 3 Image --
2022 1 12 06 -14.5 133.8 995 30 2 Image --
2022 1 12 12 -14.8 132.6 998 20 2 Image --
2022 1 12 18 -15.0 131.6 998 20 2 Image --
2022 1 13 00 -15.3 130.5 1000 20 2 Image --
2022 1 13 06 -15.4 129.4 998 20 2 Image --
2022 1 13 12 -15.7 127.9 998 20 2 Image --
2022 1 13 18 -15.9 126.8 998 20 2 Image --
2022 1 14 00 -16.1 126.2 1000 20 2 Image --
2022 1 14 06 -16.7 125.7 998 20 2 Image --
2022 1 14 12 -17.0 125.4 998 20 2 Image --
2022 1 14 18 -17.3 125.1 999 20 2 Image --
2022 1 15 00 -17.7 125.0 998 20 2 Image --
2022 1 15 06 -18.7 124.8 997 20 2 Image --
2022 1 15 12 -19.6 125.0 998 20 2 Image --
2022 1 15 18 -20.9 125.6 998 20 2 Image --
2022 1 16 00 -21.9 126.4 998 25 2 Image --
2022 1 16 06 -23.2 127.3 997 25 2 Image --
2022 1 16 12 -24.0 127.9 998 25 2 Image --
2022 1 16 18 -24.6 128.4 999 25 2 Image --
2022 1 17 00 -25.2 129.0 1000 25 2 Image --
2022 1 17 06 -25.9 129.9 998 25 2 Image --
< Cyclone 202208 2022 Season

Help